Time;durP1;ratioP1;P1;durP2;ratioP2;P2;SDS_P1;SDS_P2;PMS_P1;PMS_P2;Temp;Humidity;BMP_temperature;BMP_pressure;BME280_temperature;BME280_humidity;BME280_pressure;Samples;Min_cycle;Max_cycle;Signal;HPM_P1;HPM_P2
2023/04/11 00:02:00;;;;;;;1.77;0.73;;;;;;;9.20;89.87;100937.34;5032520;27;97883;-30
2023/04/11 00:04:25;;;;;;;7.05;1.55;;;;;;;9.20;89.56;100942.75;5032311;27;99399;-29
2023/04/11 00:06:51;;;;;;;4.40;0.82;;;;;;;9.18;90.37;100936.56;5032940;28;96634;-30
2023/04/11 00:09:16;;;;;;;6.25;1.08;;;;;;;9.16;90.16;100933.06;5032761;27;96599;-30
2023/04/11 00:11:42;;;;;;;1.05;0.38;;;;;;;9.18;90.21;100939.25;5032562;27;98947;-30
2023/04/11 00:14:07;;;;;;;1.80;1.00;;;;;;;9.17;89.97;100931.22;5032677;27;97821;-31
2023/04/11 00:16:33;;;;;;;3.00;1.08;;;;;;;9.17;89.80;100932.09;5032913;27;96610;-30
2023/04/11 00:18:59;;;;;;;6.22;1.08;;;;;;;9.12;89.53;100926.94;5031500;28;96809;-30
2023/04/11 00:21:25;;;;;;;4.22;0.70;;;;;;;9.18;89.16;100930.28;5032666;28;97876;-30
2023/04/11 00:23:54;;;;;;;9.68;1.23;;;;;;;9.19;88.69;100929.31;5031964;27;97853;-31
2023/04/11 00:26:22;;;;;;;5.53;1.13;;;;;;;9.21;88.27;100925.56;5030776;28;96960;-29
2023/04/11 00:28:48;;;;;;;6.55;0.80;;;;;;;9.18;88.01;100931.16;5030871;28;96968;-29
2023/04/11 00:31:13;;;;;;;2.63;0.63;;;;;;;9.18;88.40;100932.97;5032626;27;97863;-29
2023/04/11 00:33:39;;;;;;;2.22;0.55;;;;;;;9.17;87.82;100932.09;5032125;27;97850;-30
2023/04/11 00:36:05;;;;;;;1.60;0.50;;;;;;;9.16;87.65;100943.88;5030896;28;96639;-32
2023/04/11 00:38:31;;;;;;;3.53;0.75;;;;;;;9.18;87.46;100946.50;5032274;28;96827;-29
2023/04/11 00:40:56;;;;;;;6.55;0.75;;;;;;;9.18;87.27;100950.06;5032453;28;97449;-29
2023/04/11 00:43:21;;;;;;;0.98;0.50;;;;;;;9.14;87.51;100943.06;5032547;27;97217;-30
2023/04/11 00:45:47;;;;;;;2.95;0.52;;;;;;;9.14;87.59;100940.38;5032629;27;96594;-30
2023/04/11 00:48:12;;;;;;;6.65;0.88;;;;;;;9.14;87.49;100953.88;5032043;27;96802;-31
2023/04/11 00:50:41;;;;;;;0.90;0.43;;;;;;;9.18;87.27;100954.59;5031656;27;99121;-30
2023/04/11 00:53:07;;;;;;;7.30;1.05;;;;;;;9.13;87.28;100944.91;5013770;28;101307;-30
2023/04/11 00:55:33;;;;;;;2.70;0.90;;;;;;;9.14;87.13;100957.44;5029808;28;96672;-31
2023/04/11 00:57:59;;;;;;;5.20;0.47;;;;;;;9.12;87.15;100947.69;5032278;27;96788;-29
2023/04/11 01:00:25;;;;;;;3.78;0.75;;;;;;;9.13;86.64;100946.75;5030550;28;100765;-30
2023/04/11 01:02:51;;;;;;;3.08;0.80;;;;;;;9.13;86.31;100944.03;5030494;28;101074;-29
2023/04/11 01:05:17;;;;;;;4.38;0.80;;;;;;;9.14;86.28;100953.88;5032003;27;96703;-29
2023/04/11 01:07:47;;;;;;;1.00;0.40;;;;;;;9.14;85.63;100951.19;5031011;28;96777;-29
2023/04/11 01:10:13;;;;;;;5.53;0.65;;;;;;;9.17;85.07;100955.53;5030443;28;100998;-32
2023/04/11 01:12:39;;;;;;;2.92;0.52;;;;;;;9.18;84.33;100950.06;5030485;28;101051;-30
2023/04/11 01:15:05;;;;;;;1.45;0.32;;;;;;;9.22;84.46;100957.03;5031554;27;96557;-30
2023/04/11 01:17:31;;;;;;;4.72;0.82;;;;;;;9.20;84.45;100947.25;5031716;27;96890;-31
2023/04/11 01:19:57;;;;;;;1.85;0.60;;;;;;;9.22;84.55;100951.63;5030479;28;101046;-32
2023/04/11 01:22:24;;;;;;;6.97;1.33;;;;;;;9.21;84.40;100951.72;5031120;28;98837;-29
2023/04/11 01:24:50;;;;;;;0.55;0.32;;;;;;;9.21;84.01;100966.09;5030498;28;96638;-31
2023/04/11 01:27:16;;;;;;;3.55;0.55;;;;;;;9.21;83.10;100958.00;5030205;28;96929;-30
2023/04/11 01:29:41;;;;;;;0.68;0.30;;;;;;;9.23;82.72;100947.97;5030339;27;99429;-30
2023/04/11 01:32:06;;;;;;;1.00;0.40;;;;;;;9.20;82.54;100945.44;5032025;27;97897;-29
2023/04/11 01:34:34;;;;;;;1.30;0.70;;;;;;;9.20;82.03;100958.06;5031481;27;96751;-31
2023/04/11 01:36:59;;;;;;;4.18;0.70;;;;;;;9.24;82.18;100959.66;5030278;28;96863;-31
2023/04/11 01:39:24;;;;;;;5.28;0.60;;;;;;;9.23;82.11;100969.59;5031160;28;97828;-30
2023/04/11 01:41:51;;;;;;;2.38;0.47;;;;;;;9.18;82.06;100960.00;5031774;27;97224;-30
2023/04/11 01:44:19;;;;;;;1.75;0.30;;;;;;;9.19;81.82;100970.72;5030072;28;96913;-30
2023/04/11 01:46:45;;;;;;;0.80;0.17;;;;;;;9.18;81.87;100970.81;5030065;28;96797;-30
2023/04/11 01:49:14;;;;;;;1.98;0.77;;;;;;;9.15;81.51;100982.63;5030062;28;101385;-29
2023/04/11 01:51:39;;;;;;;2.15;0.47;;;;;;;9.15;80.88;100988.03;5031104;27;99963;-30
2023/04/11 01:54:05;;;;;;;5.20;0.88;;;;;;;9.13;80.74;100979.16;5029994;28;97393;-29
2023/04/11 01:56:30;;;;;;;3.70;0.68;;;;;;;9.08;80.89;100982.13;5031793;27;96497;-29
2023/04/11 01:58:57;;;;;;;1.83;0.60;;;;;;;9.06;80.16;100991.25;5031078;27;99360;-30
2023/04/11 02:01:23;;;;;;;2.20;0.20;;;;;;;9.04;80.31;100987.75;5029902;28;100899;-30
2023/04/11 02:03:48;;;;;;;3.60;0.40;;;;;;;9.04;80.93;101001.28;5031112;28;96526;-29
2023/04/11 02:06:14;;;;;;;1.70;0.43;;;;;;;9.00;80.28;101000.53;5032520;27;96971;-30
2023/04/11 02:08:40;;;;;;;1.77;0.45;;;;;;;9.00;80.61;101010.47;5033192;28;100687;-29
2023/04/11 02:11:06;;;;;;;3.78;0.60;;;;;;;8.94;81.00;100998.19;5034852;27;97755;-29
2023/04/11 02:13:32;;;;;;;4.63;0.38;;;;;;;8.95;80.51;101001.75;5033251;28;96643;-30
2023/04/11 02:16:05;;;;;;;0.40;0.40;;;;;;;8.92;80.67;101017.16;5034611;27;96765;-32
2023/04/11 02:18:30;;;;;;;1.55;0.28;;;;;;;8.89;81.16;101011.94;5034419;27;99587;-30
2023/04/11 02:20:57;;;;;;;0.60;0.32;;;;;;;8.84;81.09;101019.41;5035015;27;97766;-30
2023/04/11 02:23:22;;;;;;;0.47;0.32;;;;;;;8.83;81.50;101014.94;5034168;27;96806;-30
2023/04/11 02:25:49;;;;;;;1.83;0.77;;;;;;;8.81;81.52;101016.84;5035158;27;96767;-30
2023/04/11 02:28:14;;;;;;;3.55;0.90;;;;;;;8.77;81.80;101017.06;5033303;27;99315;-30
2023/04/11 02:30:40;;;;;;;2.40;0.68;;;;;;;8.76;81.30;101023.44;5033052;28;99362;-29
2023/04/11 02:33:06;;;;;;;5.15;0.93;;;;;;;8.73;81.63;101018.19;5034334;27;96598;-30
2023/04/11 02:35:31;;;;;;;2.47;0.63;;;;;;;8.73;81.58;101032.56;5032817;28;96901;-31
2023/04/11 02:37:57;;;;;;;2.83;0.63;;;;;;;8.69;81.54;101015.63;5033936;27;100318;-30
2023/04/11 02:40:22;;;;;;;0.43;0.40;;;;;;;8.71;81.78;101016.44;5034124;28;99606;-31
2023/04/11 02:42:47;;;;;;;2.35;0.43;;;;;;;8.70;81.71;101030.91;5033961;27;96716;-30
2023/04/11 02:45:13;;;;;;;2.08;0.57;;;;;;;8.71;81.77;101037.16;5034845;27;96862;-30
2023/04/11 02:47:38;;;;;;;1.90;0.65;;;;;;;8.68;81.50;101032.81;5034241;27;98469;-30
2023/04/11 02:50:05;;;;;;;1.85;0.70;;;;;;;8.62;81.31;101030.41;5032670;28;100787;-30
2023/04/11 02:52:32;;;;;;;6.18;0.68;;;;;;;8.62;81.67;101027.69;5032005;28;97625;-30
2023/04/11 02:54:57;;;;;;;1.60;0.55;;;;;;;8.58;81.42;101019.81;5033862;27;96803;-30
2023/04/11 02:57:23;;;;;;;0.85;0.30;;;;;;;8.55;81.62;101031.66;5033535;27;99576;-32
2023/04/11 02:59:48;;;;;;;0.68;0.50;;;;;;;8.54;81.74;101027.22;5034095;28;97823;-29
2023/04/11 03:02:13;;;;;;;0.50;0.40;;;;;;;8.55;81.77;101038.88;5034170;27;96618;-30
2023/04/11 03:04:38;;;;;;;5.05;0.63;;;;;;;8.52;81.67;101033.66;5033832;27;96769;-31
2023/04/11 03:07:04;;;;;;;1.17;0.28;;;;;;;8.50;81.91;101031.03;5033883;27;97320;-30
2023/04/11 03:09:29;;;;;;;2.65;0.40;;;;;;;8.46;81.99;101035.72;5034188;27;97760;-30
2023/04/11 03:11:55;;;;;;;2.00;0.47;;;;;;;8.46;81.71;101041.13;5033710;27;96583;-33
2023/04/11 03:14:21;;;;;;;1.45;0.52;;;;;;;8.48;81.68;101041.00;5033827;27;96705;-31
2023/04/11 03:16:46;;;;;;;0.10;0.10;;;;;;;8.47;81.56;101044.69;5033276;28;97941;-30
2023/04/11 03:19:11;;;;;;;2.22;0.52;;;;;;;8.47;81.78;101061.75;5032806;27;103017;-30
2023/04/11 03:21:36;;;;;;;3.40;0.43;;;;;;;8.45;81.67;101046.56;5033515;27;99557;-30
2023/04/11 03:24:02;;;;;;;2.92;0.35;;;;;;;8.47;81.85;101052.78;5033600;27;96853;-30
2023/04/11 03:26:27;;;;;;;1.40;0.45;;;;;;;8.44;81.74;101053.81;5033362;27;98335;-30
2023/04/11 03:28:53;;;;;;;0.77;0.30;;;;;;;8.42;81.46;101057.53;5033206;27;101299;-30
2023/04/11 03:31:19;;;;;;;0.82;0.40;;;;;;;8.42;81.11;101073.72;5033359;27;96572;-29
2023/04/11 03:33:47;;;;;;;1.13;0.28;;;;;;;8.42;80.87;101076.44;5032564;28;96794;-29
2023/04/11 03:36:13;;;;;;;2.30;0.40;;;;;;;8.40;80.46;101068.41;5033077;28;99282;-30
2023/04/11 03:38:38;;;;;;;2.60;0.47;;;;;;;8.42;80.54;101073.72;5033402;28;97465;-30
2023/04/11 03:41:04;;;;;;;3.90;0.68;;;;;;;8.41;80.21;101069.25;5032752;27;96617;-29
2023/04/11 03:43:30;;;;;;;3.92;0.28;;;;;;;8.36;79.56;101068.59;5031588;28;97205;-30
2023/04/11 03:45:55;;;;;;;3.25;0.30;;;;;;;8.31;78.66;101082.31;5033016;28;99452;-30
2023/04/11 03:48:25;;;;;;;1.85;0.75;;;;;;;8.32;78.69;101078.66;5033052;28;99045;-30
2023/04/11 03:50:50;;;;;;;2.67;0.70;;;;;;;8.31;79.84;101090.41;5031666;28;96785;-29
2023/04/11 03:53:16;;;;;;;0.95;0.40;;;;;;;8.27;78.78;101100.47;5033316;27;96840;-30
2023/04/11 03:55:41;;;;;;;0.20;0.13;;;;;;;8.27;78.79;101091.47;5032625;27;101992;-31
2023/04/11 03:58:07;;;;;;;2.28;0.40;;;;;;;8.26;78.23;101103.25;5033480;27;97831;-29
2023/04/11 04:00:32;;;;;;;0.55;0.32;;;;;;;8.24;78.42;101099.75;5033017;27;96772;-30
2023/04/11 04:02:57;;;;;;;0.43;0.30;;;;;;;8.18;77.18;101103.63;5033217;27;96804;-30
2023/04/11 04:05:23;;;;;;;0.90;0.28;;;;;;;8.17;78.26;101096.44;5032321;27;99204;-29
2023/04/11 04:07:48;;;;;;;3.15;0.63;;;;;;;8.16;78.18;101104.63;5032930;27;97942;-30
2023/04/11 04:10:13;;;;;;;4.47;0.70;;;;;;;8.13;77.03;101120.94;5032892;28;96586;-30
2023/04/11 04:12:39;;;;;;;1.20;0.32;;;;;;;8.12;76.92;101108.41;5032982;27;96690;-30
2023/04/11 04:15:05;;;;;;;0.95;0.38;;;;;;;8.09;76.89;101121.09;5032441;27;99083;-30
2023/04/11 04:17:30;;;;;;;2.10;0.30;;;;;;;8.08;76.98;101123.91;5032749;27;97829;-29
2023/04/11 04:19:55;;;;;;;0.63;0.32;;;;;;;8.07;76.22;101122.13;5032816;28;96560;-30
2023/04/11 04:22:22;;;;;;;0.20;0.10;;;;;;;8.02;76.26;101119.63;5032340;27;96806;-30
2023/04/11 04:24:48;;;;;;;0.82;0.10;;;;;;;8.01;76.28;101125.13;5032625;27;97975;-30
2023/04/11 04:27:16;;;;;;;0.43;0.15;;;;;;;8.05;76.62;101130.28;5032321;27;99046;-29
2023/04/11 04:29:45;;;;;;;3.40;0.38;;;;;;;8.02;76.89;101122.34;5032037;27;96647;-30
2023/04/11 04:32:13;;;;;;;0.00;0.00;;;;;;;8.01;77.00;101127.81;5031133;28;97257;-30
2023/04/11 04:34:45;;;;;;;3.50;0.63;;;;;;;8.01;77.45;101122.44;5031203;28;98890;-31
2023/04/11 04:37:20;;;;;;;;;;;;;;;8.01;77.45;101128.69;5032686;27;99164;-31
2023/04/11 04:39:52;;;;;;;0.40;0.20;;;;;;;7.98;77.68;101136.03;5031319;28;96534;-32
2023/04/11 04:42:19;;;;;;;0.28;0.20;;;;;;;7.99;77.46;101140.50;5032271;28;96691;-31
2023/04/11 04:44:44;;;;;;;0.95;0.43;;;;;;;8.01;77.58;101144.00;5030895;28;101017;-30
2023/04/11 04:47:10;;;;;;;0.00;0.00;;;;;;;8.00;78.09;101140.41;5032570;27;99108;-29
2023/04/11 04:49:35;;;;;;;1.85;0.20;;;;;;;7.97;77.90;101142.38;5032360;27;96678;-30
2023/04/11 04:52:00;;;;;;;0.40;0.22;;;;;;;7.98;78.32;101149.53;5031974;27;99872;-30
2023/04/11 04:54:25;;;;;;;1.70;0.63;;;;;;;8.00;78.48;101155.72;5031666;27;97240;-29
2023/04/11 04:56:51;;;;;;;0.90;0.28;;;;;;;8.00;78.83;101155.72;5032283;27;97775;-30
2023/04/11 04:59:17;;;;;;;0.65;0.20;;;;;;;8.03;78.77;101145.69;5032442;27;96632;-29
2023/04/11 05:01:43;;;;;;;1.60;0.70;;;;;;;8.09;78.73;101158.00;5032037;28;96842;-30
2023/04/11 05:04:08;;;;;;;0.70;0.47;;;;;;;8.10;78.83;101162.44;5031881;27;99484;-30
2023/04/11 05:06:33;;;;;;;5.63;0.90;;;;;;;8.11;79.44;101166.03;5031823;27;97880;-29
2023/04/11 05:09:00;;;;;;;2.50;1.10;;;;;;;8.17;79.83;101165.75;5032039;27;96558;-29
2023/04/11 05:11:26;;;;;;;1.85;0.68;;;;;;;8.16;79.62;101161.31;5030960;28;96822;-29
2023/04/11 05:13:52;;;;;;;4.07;0.93;;;;;;;8.20;79.52;101162.88;5030294;28;101296;-29
2023/04/11 05:16:18;;;;;;;5.75;1.10;;;;;;;8.23;79.89;101169.03;5031823;27;97811;-30
2023/04/11 05:18:44;;;;;;;2.00;0.93;;;;;;;8.23;80.35;101173.56;5030134;28;98017;-29
2023/04/11 05:21:09;;;;;;;1.05;0.65;;;;;;;8.25;80.24;101180.63;5030314;28;97470;-30
2023/04/11 05:23:35;;;;;;;0.50;0.40;;;;;;;8.27;80.25;101185.94;5031273;27;97896;-30
2023/04/11 05:26:01;;;;;;;2.80;1.02;;;;;;;8.29;80.08;101189.44;5032010;28;97801;-30
2023/04/11 05:28:26;;;;;;;1.15;0.65;;;;;;;8.29;80.97;101186.75;5031608;27;96826;-30
2023/04/11 05:30:52;;;;;;;1.65;0.80;;;;;;;8.31;80.46;101184.84;5030368;28;96796;-30
2023/04/11 05:33:17;;;;;;;2.85;0.57;;;;;;;8.33;80.17;101187.50;5031891;27;97840;-29
2023/04/11 05:35:42;;;;;;;0.60;0.50;;;;;;;8.30;80.21;101193.91;5031872;27;97789;-30
2023/04/11 05:38:08;;;;;;;3.45;0.93;;;;;;;8.30;80.40;101193.91;5031924;28;96521;-30
2023/04/11 05:40:35;;;;;;;1.95;0.40;;;;;;;8.28;80.45;101193.97;5031886;27;96730;-30
2023/04/11 05:43:01;;;;;;;4.28;0.57;;;;;;;8.27;80.28;101192.25;5032985;28;100790;-29
2023/04/11 05:45:26;;;;;;;0.63;0.43;;;;;;;8.31;79.52;101192.94;5033706;27;101047;-29
2023/04/11 05:47:52;;;;;;;2.70;0.47;;;;;;;8.33;79.23;101209.97;5035374;27;96467;-29
2023/04/11 05:50:17;;;;;;;0.75;0.28;;;;;;;8.32;79.00;101201.91;5035041;27;96693;-29
2023/04/11 05:52:42;;;;;;;1.48;0.52;;;;;;;8.38;78.86;101215.16;5034883;28;102490;-29
2023/04/11 05:55:08;;;;;;;0.75;0.20;;;;;;;8.36;78.45;101219.72;5034561;27;108269;-32
2023/04/11 05:57:33;;;;;;;1.00;0.40;;;;;;;8.39;78.23;101222.28;5033478;28;97052;-31
2023/04/11 06:00:00;;;;;;;0.93;0.57;;;;;;;8.42;78.16;101228.47;5035532;27;96722;-30
2023/04/11 06:02:27;;;;;;;0.77;0.20;;;;;;;8.46;77.80;101238.19;5034548;27;99327;-30
2023/04/11 06:04:52;;;;;;;2.70;0.50;;;;;;;8.50;77.75;101234.38;5033293;28;101076;-30
2023/04/11 06:07:18;;;;;;;1.50;0.45;;;;;;;8.56;77.59;101230.53;5034711;27;96531;-30
2023/04/11 06:09:43;;;;;;;1.95;0.43;;;;;;;8.57;77.26;101234.97;5034863;27;96843;-30
2023/04/11 06:12:08;;;;;;;2.85;0.68;;;;;;;8.58;77.30;101242.13;5034858;27;97213;-30
2023/04/11 06:14:34;;;;;;;0.52;0.22;;;;;;;8.65;76.67;101242.69;5034750;27;97798;-31
2023/04/11 06:16:59;;;;;;;3.22;0.65;;;;;;;8.72;76.17;101254.97;5034760;27;96508;-30
2023/04/11 06:19:25;;;;;;;3.42;0.50;;;;;;;8.80;76.28;101227.59;5034701;27;96791;-30
2023/04/11 06:21:50;;;;;;;2.90;0.30;;;;;;;8.90;75.91;101253.22;5034708;27;97568;-30
2023/04/11 06:24:18;;;;;;;2.20;0.43;;;;;;;9.00;75.95;101240.13;5034383;27;99516;-30
2023/04/11 06:26:44;;;;;;;0.88;0.45;;;;;;;9.13;75.78;101244.88;5034221;27;96812;-30
2023/04/11 06:29:09;;;;;;;3.05;0.30;;;;;;;9.21;75.56;101247.19;5034548;27;96768;-31
2023/04/11 06:31:35;;;;;;;2.88;0.50;;;;;;;9.13;75.88;101241.31;5033647;27;99564;-30
2023/04/11 06:34:03;;;;;;;0.75;0.20;;;;;;;9.12;75.97;101247.63;5034154;28;97460;-30
2023/04/11 06:36:29;;;;;;;2.10;0.68;;;;;;;9.06;76.17;101242.56;5034547;27;96489;-30
2023/04/11 06:38:54;;;;;;;2.25;0.68;;;;;;;9.14;76.04;101248.44;5034462;28;96834;-30
2023/04/11 06:41:19;;;;;;;3.63;0.80;;;;;;;9.28;75.43;101247.78;5033931;27;98771;-30
2023/04/11 06:43:45;;;;;;;6.25;0.55;;;;;;;9.41;74.96;101250.72;5034075;27;97760;-30
2023/04/11 06:46:10;;;;;;;0.68;0.20;;;;;;;9.47;74.62;101253.13;5034725;27;96621;-30
2023/04/11 06:48:36;;;;;;;2.00;0.30;;;;;;;9.42;73.77;101258.78;5034555;27;96707;-32
2023/04/11 06:51:01;;;;;;;4.35;0.80;;;;;;;9.45;72.48;101261.31;5033845;27;99266;-30
2023/04/11 06:53:27;;;;;;;3.35;0.80;;;;;;;9.40;73.04;101266.06;5032616;27;99621;-29
2023/04/11 06:55:52;;;;;;;1.40;0.47;;;;;;;9.49;73.14;101272.88;5033755;27;96669;-30
2023/04/11 06:58:17;;;;;;;3.80;0.28;;;;;;;9.61;72.99;101274.06;5033730;27;96881;-30
2023/04/11 07:00:43;;;;;;;0.95;0.22;;;;;;;9.87;72.72;101270.03;5033872;27;97799;-30
2023/04/11 07:03:08;;;;;;;7.43;1.15;;;;;;;10.03;72.10;101280.91;5032165;28;101458;-31
2023/04/11 07:05:36;;;;;;;1.50;0.50;;;;;;;10.13;72.26;101293.91;5033933;27;96528;-30
2023/04/11 07:08:02;;;;;;;1.15;0.32;;;;;;;10.08;71.78;101297.78;5034096;27;96757;-30
2023/04/11 07:10:27;;;;;;;1.75;0.68;;;;;;;10.25;71.10;101292.38;5032403;28;101533;-31
2023/04/11 07:12:52;;;;;;;1.33;0.50;;;;;;;10.25;69.59;101296.88;5034104;28;97972;-31
2023/04/11 07:15:18;;;;;;;2.08;0.38;;;;;;;10.39;69.73;101292.56;5033766;27;96571;-30
2023/04/11 07:17:43;;;;;;;1.08;0.38;;;;;;;10.55;69.28;101308.81;5033735;27;96901;-30
2023/04/11 07:20:10;;;;;;;0.68;0.28;;;;;;;10.35;69.43;101299.06;5032951;27;99126;-30
2023/04/11 07:22:35;;;;;;;3.72;0.63;;;;;;;10.46;69.39;101309.31;5031465;28;100871;-30
2023/04/11 07:25:04;;;;;;;1.63;0.45;;;;;;;10.49;69.21;101320.00;5033908;28;96563;-31
2023/04/11 07:27:31;;;;;;;1.70;0.45;;;;;;;10.45;68.94;101315.72;5033146;28;96759;-31
2023/04/11 07:29:57;;;;;;;2.85;0.30;;;;;;;10.68;68.85;101317.19;5032023;27;101023;-30
2023/04/11 07:32:23;;;;;;;0.10;0.10;;;;;;;10.54;67.86;101333.31;5031742;28;100805;-30
2023/04/11 07:34:48;;;;;;;1.90;0.47;;;;;;;10.30;67.94;101313.81;5031945;28;96681;-31
2023/04/11 07:37:15;;;;;;;1.10;0.43;;;;;;;10.07;68.42;101321.28;5033959;27;96845;-30
2023/04/11 07:39:40;;;;;;;1.02;0.35;;;;;;;10.12;68.51;101318.31;5033279;27;99412;-29
2023/04/11 07:42:06;;;;;;;2.00;0.30;;;;;;;10.50;68.44;101310.03;5033278;28;97810;-32
2023/04/11 07:44:31;;;;;;;4.18;0.55;;;;;;;10.77;67.88;101313.97;5032404;27;96686;-30
2023/04/11 07:46:57;;;;;;;2.40;0.38;;;;;;;11.15;66.81;101324.50;5031591;27;98455;-30
2023/04/11 07:49:23;;;;;;;1.83;0.55;;;;;;;11.39;65.49;101310.50;5033140;28;97599;-30
2023/04/11 07:51:57;;;;;;;3.00;1.00;;;;;;;11.22;64.69;101330.44;5033655;27;97237;-30
2023/04/11 07:54:24;;;;;;;2.38;0.28;;;;;;;11.29;65.31;101321.00;5012562;28;97024;-30
2023/04/11 07:56:49;;;;;;;3.10;0.85;;;;;;;11.38;65.20;101331.31;5012863;28;96847;-30
2023/04/11 07:59:15;;;;;;;2.60;0.73;;;;;;;11.80;64.84;101321.66;5013039;28;97963;-33
2023/04/11 08:01:41;;;;;;;1.90;0.57;;;;;;;11.90;64.82;101327.44;5013167;28;97822;-31
2023/04/11 08:04:06;;;;;;;1.77;0.43;;;;;;;11.88;65.37;101335.69;5013046;28;96632;-31
2023/04/11 08:06:32;;;;;;;2.60;0.70;;;;;;;11.89;65.10;101341.97;5012984;28;96911;-31
2023/04/11 08:08:57;;;;;;;1.73;0.70;;;;;;;11.79;64.55;101335.31;5008799;28;101125;-31
2023/04/11 08:11:22;;;;;;;0.90;0.30;;;;;;;11.48;64.84;101342.53;5010131;28;99308;-32
2023/04/11 08:13:48;;;;;;;0.40;0.22;;;;;;;11.28;63.57;101349.09;5010116;28;97014;-33
2023/04/11 08:16:14;;;;;;;2.00;0.40;;;;;;;11.24;63.31;101361.06;5010111;28;97216;-30
2023/04/11 08:18:44;;;;;;;0.95;0.45;;;;;;;11.41;63.98;101360.97;5010051;28;99196;-34
2023/04/11 08:21:10;;;;;;;2.50;0.90;;;;;;;11.56;63.38;101361.06;5008728;28;101556;-30
2023/04/11 08:23:36;;;;;;;2.28;0.50;;;;;;;11.65;63.05;101366.84;5010989;28;96807;-30
2023/04/11 08:26:01;;;;;;;2.38;0.82;;;;;;;11.75;62.43;101367.19;5012805;28;96858;-30
2023/04/11 08:28:27;;;;;;;3.15;0.32;;;;;;;11.90;62.57;101377.19;5012369;28;98457;-30
2023/04/11 08:30:54;;;;;;;2.40;0.55;;;;;;;12.22;61.28;101362.66;5012183;28;99473;-30
2023/04/11 08:33:24;;;;;;;0.85;0.35;;;;;;;12.50;60.78;101373.59;5010536;28;97092;-31
2023/04/11 08:35:49;;;;;;;1.10;0.30;;;;;;;12.55;58.91;101378.75;5012290;28;96680;-30
2023/04/11 08:38:15;;;;;;;1.83;0.60;;;;;;;12.56;58.09;101387.78;5012287;28;97974;-30
2023/04/11 08:40:40;;;;;;;1.58;0.28;;;;;;;12.86;58.98;101391.31;5012435;28;97097;-31
2023/04/11 08:43:10;;;;;;;1.20;0.30;;;;;;;12.90;58.68;101381.13;5011994;28;96995;-30
2023/04/11 08:45:39;;;;;;;2.35;0.40;;;;;;;13.01;58.94;101380.44;5012297;28;96669;-30
2023/04/11 08:48:06;;;;;;;1.52;0.60;;;;;;;13.38;58.88;101370.84;5010728;28;100974;-30
2023/04/11 08:50:32;;;;;;;0.22;0.15;;;;;;;13.52;56.65;101384.41;5011014;28;101169;-30
2023/04/11 08:53:02;;;;;;;1.67;0.50;;;;;;;13.63;57.57;101382.81;5010780;28;96923;-30
2023/04/11 08:55:28;;;;;;;1.45;0.40;;;;;;;13.27;55.97;101386.94;5010751;28;96807;-30
2023/04/11 08:57:57;;;;;;;1.65;0.50;;;;;;;13.12;56.05;101386.94;5010098;28;100847;-30
2023/04/11 09:00:25;;;;;;;1.73;0.63;;;;;;;13.47;56.38;101377.53;5010594;28;100988;-31
2023/04/11 09:03:00;;;;;;;2.33;0.52;;;;;;;13.55;56.13;101381.47;5010703;28;96741;-30
2023/04/11 09:05:28;;;;;;;2.47;0.50;;;;;;;13.55;55.42;101394.22;5010773;28;96783;-33
2023/04/11 09:07:56;;;;;;;3.38;0.57;;;;;;;13.55;56.22;101392.38;5010531;28;101324;-30
2023/04/11 09:10:22;;;;;;;0.82;0.28;;;;;;;13.64;55.12;101390.03;5010266;28;100914;-31
2023/04/11 09:12:47;;;;;;;1.85;0.32;;;;;;;13.75;53.86;101406.50;5010423;28;96732;-31
2023/04/11 09:15:21;;;;;;;2.10;0.57;;;;;;;13.69;52.53;101398.78;5010799;28;96837;-30
2023/04/11 09:17:46;;;;;;;2.30;0.38;;;;;;;13.80;54.50;101405.25;5013785;28;101021;-30
2023/04/11 09:20:26;;;;;;;1.60;0.40;;;;;;;13.67;51.83;101406.16;5013946;28;99196;-30
2023/04/11 09:22:52;;;;;;;1.38;0.40;;;;;;;13.89;54.04;101405.59;5012531;28;97220;-30
2023/04/11 09:25:20;;;;;;;3.33;0.60;;;;;;;14.08;53.81;101388.91;5013861;28;96915;-30
2023/04/11 09:27:46;;;;;;;1.50;0.50;;;;;;;14.14;51.97;101397.53;5014927;28;98015;-30
2023/04/11 09:30:25;;;;;;;5.00;0.73;;;;;;;14.33;51.72;101405.34;5013677;28;101587;-30
2023/04/11 09:32:52;;;;;;;4.28;0.30;;;;;;;14.42;50.93;101401.13;5013861;28;96619;-31
2023/04/11 09:35:27;;;;;;;1.38;0.45;;;;;;;14.48;52.38;101402.53;5013675;28;96930;-31
2023/04/11 09:37:59;;;;;;;3.42;0.80;;;;;;;14.83;51.89;101411.88;5013662;28;100823;-30
2023/04/11 09:40:32;;;;;;;2.92;0.45;;;;;;;14.62;48.12;101406.06;5015524;28;97864;-29
2023/04/11 09:43:02;;;;;;;5.20;0.50;;;;;;;14.52;52.42;101404.09;5013680;28;96860;-31
2023/04/11 09:45:29;;;;;;;3.42;0.75;;;;;;;14.68;51.71;101401.16;5013580;28;97158;-30
2023/04/11 09:47:57;;;;;;;5.22;0.75;;;;;;;14.89;50.96;101407.84;5012973;28;100923;-30
2023/04/11 09:50:24;;;;;;;0.75;0.22;;;;;;;15.15;51.78;101414.16;5013494;28;100719;-30
2023/04/11 09:52:51;;;;;;;2.58;0.63;;;;;;;15.19;50.80;101414.84;5015037;28;96681;-31
2023/04/11 09:55:22;;;;;;;0.68;0.30;;;;;;;15.34;49.95;101404.66;5014893;28;96773;-32
2023/04/11 09:57:52;;;;;;;1.43;0.30;;;;;;;15.29;49.70;101415.91;5013427;28;101793;-30
2023/04/11 10:00:23;;;;;;;1.45;0.50;;;;;;;15.04;48.99;101408.59;5013746;28;99835;-31
2023/04/11 10:02:51;;;;;;;1.65;0.70;;;;;;;14.88;49.80;101416.16;5013954;28;96661;-30
2023/04/11 10:05:18;;;;;;;2.78;0.40;;;;;;;14.90;50.81;101414.16;5013371;28;96773;-30
2023/04/11 10:08:15;;;;;;;2.05;0.60;;;;;;;14.90;50.08;101416.88;5011216;28;101478;-30
2023/04/11 10:10:42;;;;;;;3.33;0.75;;;;;;;15.02;50.89;101395.09;5014317;28;99234;-30
2023/04/11 10:13:34;;;;;;;2.22;0.60;;;;;;;15.26;50.38;101403.34;5012762;28;96806;-30
2023/04/11 10:16:10;;;;;;;1.38;0.90;;;;;;;15.08;49.44;101401.94;5004816;28;96771;-31
2023/04/11 10:18:36;;;;;;;5.00;0.55;;;;;;;15.27;49.87;101410.53;5014230;28;99765;-30
2023/04/11 10:21:02;;;;;;;2.92;0.52;;;;;;;15.47;47.57;101416.44;5012437;28;101407;-30
2023/04/11 10:23:28;;;;;;;3.10;0.68;;;;;;;15.57;47.96;101409.31;5010263;28;97334;-31
2023/04/11 10:25:58;;;;;;;1.10;0.30;;;;;;;15.67;48.45;101413.09;5012093;28;96871;-30
2023/04/11 10:28:38;;;;;;;1.70;0.35;;;;;;;15.69;48.33;101410.25;5012083;28;97908;-32
2023/04/11 10:31:06;;;;;;;2.17;0.82;;;;;;;15.71;48.12;101403.72;5011023;28;101272;-31
2023/04/11 10:33:32;;;;;;;5.38;1.02;;;;;;;15.85;49.48;101412.75;5010725;28;97017;-30
2023/04/11 10:36:02;;;;;;;2.03;0.68;;;;;;;15.98;47.00;101416.31;5010811;28;97010;-31
2023/04/11 10:38:40;;;;;;;1.70;0.63;;;;;;;16.18;47.90;101413.91;5012082;28;101332;-30
2023/04/11 10:41:31;;;;;;;1.10;0.45;;;;;;;16.36;46.27;101412.53;5013896;28;99952;-30
2023/04/11 10:44:12;;;;;;;2.75;0.55;;;;;;;16.36;47.55;101412.53;5014158;28;96490;-30
2023/04/11 10:46:49;;;;;;;2.05;1.27;;;;;;;16.40;46.10;101410.41;5013995;28;96834;-29
2023/04/11 10:49:31;;;;;;;4.20;0.63;;;;;;;16.50;47.58;101401.38;5014235;28;97406;-30
2023/04/11 10:52:20;;;;;;;3.38;0.68;;;;;;;16.45;46.75;101403.59;5012413;28;101494;-31
2023/04/11 10:54:46;;;;;;;4.22;0.75;;;;;;;16.40;47.49;101405.84;5013788;28;96528;-29
2023/04/11 10:57:11;;;;;;;6.28;1.08;;;;;;;16.52;46.68;101401.28;5014214;28;96762;-30
2023/04/11 10:59:37;;;;;;;2.47;0.50;;;;;;;16.63;46.77;101417.69;5013881;28;98059;-29
2023/04/11 11:02:02;;;;;;;4.47;0.80;;;;;;;16.56;46.37;101400.91;5013988;28;98001;-29
2023/04/11 11:04:34;;;;;;;2.90;0.68;;;;;;;16.56;45.53;101403.66;5013293;28;96703;-29
2023/04/11 11:07:03;;;;;;;3.45;0.68;;;;;;;16.64;46.24;101405.78;5013700;28;96838;-30
2023/04/11 11:09:29;;;;;;;3.78;0.82;;;;;;;16.58;45.22;101399.91;5013422;28;99364;-29
2023/04/11 11:12:14;;;;;;;3.22;0.65;;;;;;;16.69;45.96;101410.91;5012152;28;101107;-29
2023/04/11 11:14:42;;;;;;;4.00;0.82;;;;;;;16.79;46.39;101411.06;5012222;28;96696;-30
2023/04/11 11:17:09;;;;;;;2.92;0.80;;;;;;;16.64;44.94;101415.84;5012318;28;96953;-30
2023/04/11 11:19:35;;;;;;;2.08;0.57;;;;;;;16.68;45.48;101422.81;5013350;28;99168;-30
2023/04/11 11:22:05;;;;;;;2.78;0.82;;;;;;;16.74;45.19;101416.88;5012448;28;101210;-30
2023/04/11 11:24:31;;;;;;;4.93;0.63;;;;;;;16.77;45.92;101420.22;5013326;28;96619;-30
2023/04/11 11:26:57;;;;;;;2.67;0.80;;;;;;;16.69;46.59;101427.31;5011682;28;96880;-30
2023/04/11 11:29:30;;;;;;;3.58;0.45;;;;;;;16.60;44.15;101436.22;5012759;28;98068;-30